sensor_id;sensor_type;location;lat;lon;timestamp;P1;durP1;ratioP1;P2;durP2;ratioP2
8113;SDS011;4099;52.684;9.918;2023-03-11T00:02:08;32.73;;;19.03;;
8113;SDS011;4099;52.684;9.918;2023-03-11T00:07:12;31.13;;;18.63;;
8113;SDS011;4099;52.684;9.918;2023-03-11T00:12:13;38.83;;;24.17;;
8113;SDS011;4099;52.684;9.918;2023-03-11T00:17:15;32.00;;;18.50;;
8113;SDS011;4099;52.684;9.918;2023-03-11T00:22:18;26.97;;;15.73;;
8113;SDS011;4099;52.684;9.918;2023-03-11T00:27:20;24.23;;;15.47;;
8113;SDS011;4099;52.684;9.918;2023-03-11T00:32:22;28.93;;;18.17;;
8113;SDS011;4099;52.684;9.918;2023-03-11T00:37:25;30.10;;;17.13;;
8113;SDS011;4099;52.684;9.918;2023-03-11T00:42:27;26.83;;;17.47;;
8113;SDS011;4099;52.684;9.918;2023-03-11T00:47:29;24.77;;;15.63;;
8113;SDS011;4099;52.684;9.918;2023-03-11T00:52:32;26.40;;;15.83;;
8113;SDS011;4099;52.684;9.918;2023-03-11T00:57:34;29.53;;;18.83;;
8113;SDS011;4099;52.684;9.918;2023-03-11T01:02:36;27.33;;;17.70;;
8113;SDS011;4099;52.684;9.918;2023-03-11T01:07:40;23.97;;;15.70;;
8113;SDS011;4099;52.684;9.918;2023-03-11T01:12:42;24.57;;;15.87;;
8113;SDS011;4099;52.684;9.918;2023-03-11T01:17:44;28.17;;;16.03;;
8113;SDS011;4099;52.684;9.918;2023-03-11T01:22:47;28.10;;;15.13;;
8113;SDS011;4099;52.684;9.918;2023-03-11T01:27:49;28.83;;;14.93;;
8113;SDS011;4099;52.684;9.918;2023-03-11T01:32:51;25.33;;;15.30;;
8113;SDS011;4099;52.684;9.918;2023-03-11T01:37:55;26.77;;;15.97;;
8113;SDS011;4099;52.684;9.918;2023-03-11T01:42:59;28.80;;;16.10;;
8113;SDS011;4099;52.684;9.918;2023-03-11T01:48:03;27.73;;;15.77;;
8113;SDS011;4099;52.684;9.918;2023-03-11T01:53:06;26.53;;;15.93;;
8113;SDS011;4099;52.684;9.918;2023-03-11T01:58:10;24.10;;;14.07;;
8113;SDS011;4099;52.684;9.918;2023-03-11T02:03:17;24.83;;;14.47;;
8113;SDS011;4099;52.684;9.918;2023-03-11T02:08:25;24.40;;;13.33;;
8113;SDS011;4099;52.684;9.918;2023-03-11T02:13:30;20.70;;;12.17;;
8113;SDS011;4099;52.684;9.918;2023-03-11T02:18:33;40.53;;;24.77;;
8113;SDS011;4099;52.684;9.918;2023-03-11T02:23:40;22.90;;;13.27;;
8113;SDS011;4099;52.684;9.918;2023-03-11T02:28:49;22.40;;;11.50;;
8113;SDS011;4099;52.684;9.918;2023-03-11T02:33:52;22.37;;;11.63;;
8113;SDS011;4099;52.684;9.918;2023-03-11T02:38:56;22.07;;;11.67;;
8113;SDS011;4099;52.684;9.918;2023-03-11T02:44:00;22.73;;;12.53;;
8113;SDS011;4099;52.684;9.918;2023-03-11T02:49:04;16.43;;;9.80;;
8113;SDS011;4099;52.684;9.918;2023-03-11T02:54:07;16.57;;;10.70;;
8113;SDS011;4099;52.684;9.918;2023-03-11T02:59:12;17.93;;;10.53;;
8113;SDS011;4099;52.684;9.918;2023-03-11T03:04:14;16.70;;;9.10;;
8113;SDS011;4099;52.684;9.918;2023-03-11T03:09:16;19.60;;;12.50;;
8113;SDS011;4099;52.684;9.918;2023-03-11T03:14:20;16.60;;;9.57;;
8113;SDS011;4099;52.684;9.918;2023-03-11T03:19:22;19.03;;;11.17;;
8113;SDS011;4099;52.684;9.918;2023-03-11T03:24:25;17.50;;;10.47;;
8113;SDS011;4099;52.684;9.918;2023-03-11T03:29:28;35.87;;;23.90;;
8113;SDS011;4099;52.684;9.918;2023-03-11T03:34:30;18.07;;;12.87;;
8113;SDS011;4099;52.684;9.918;2023-03-11T03:39:33;23.73;;;16.57;;
8113;SDS011;4099;52.684;9.918;2023-03-11T03:44:37;18.50;;;11.67;;
8113;SDS011;4099;52.684;9.918;2023-03-11T03:49:39;17.80;;;13.00;;
8113;SDS011;4099;52.684;9.918;2023-03-11T03:54:41;15.50;;;10.13;;
8113;SDS011;4099;52.684;9.918;2023-03-11T03:59:45;13.73;;;8.87;;
8113;SDS011;4099;52.684;9.918;2023-03-11T04:04:47;14.13;;;9.13;;
8113;SDS011;4099;52.684;9.918;2023-03-11T04:09:49;12.60;;;8.23;;
8113;SDS011;4099;52.684;9.918;2023-03-11T04:14:52;13.70;;;8.50;;
8113;SDS011;4099;52.684;9.918;2023-03-11T04:19:54;21.97;;;15.40;;
8113;SDS011;4099;52.684;9.918;2023-03-11T04:24:56;14.67;;;9.07;;
8113;SDS011;4099;52.684;9.918;2023-03-11T04:29:59;10.43;;;6.77;;
8113;SDS011;4099;52.684;9.918;2023-03-11T04:35:02;10.87;;;7.17;;
8113;SDS011;4099;52.684;9.918;2023-03-11T04:40:06;15.43;;;8.00;;
8113;SDS011;4099;52.684;9.918;2023-03-11T04:45:11;14.67;;;8.10;;
8113;SDS011;4099;52.684;9.918;2023-03-11T04:50:16;15.23;;;8.70;;
8113;SDS011;4099;52.684;9.918;2023-03-11T04:55:19;13.37;;;8.17;;
8113;SDS011;4099;52.684;9.918;2023-03-11T05:00:22;11.20;;;7.67;;
8113;SDS011;4099;52.684;9.918;2023-03-11T05:05:31;11.30;;;7.93;;
8113;SDS011;4099;52.684;9.918;2023-03-11T05:10:33;11.43;;;7.47;;
8113;SDS011;4099;52.684;9.918;2023-03-11T05:15:40;11.20;;;7.10;;
8113;SDS011;4099;52.684;9.918;2023-03-11T05:20:42;14.43;;;8.00;;
8113;SDS011;4099;52.684;9.918;2023-03-11T05:25:45;13.57;;;8.03;;
8113;SDS011;4099;52.684;9.918;2023-03-11T05:30:48;17.63;;;8.77;;
8113;SDS011;4099;52.684;9.918;2023-03-11T05:35:51;11.97;;;7.13;;
8113;SDS011;4099;52.684;9.918;2023-03-11T05:40:54;14.93;;;8.07;;
8113;SDS011;4099;52.684;9.918;2023-03-11T05:45:57;12.13;;;7.53;;
8113;SDS011;4099;52.684;9.918;2023-03-11T05:50:59;14.87;;;8.00;;
8113;SDS011;4099;52.684;9.918;2023-03-11T05:56:01;17.63;;;7.67;;
8113;SDS011;4099;52.684;9.918;2023-03-11T06:01:07;16.47;;;8.40;;
8113;SDS011;4099;52.684;9.918;2023-03-11T06:06:11;16.57;;;8.63;;
8113;SDS011;4099;52.684;9.918;2023-03-11T06:11:14;20.57;;;10.10;;
8113;SDS011;4099;52.684;9.918;2023-03-11T06:16:19;20.03;;;9.67;;
8113;SDS011;4099;52.684;9.918;2023-03-11T06:21:22;19.77;;;10.13;;
8113;SDS011;4099;52.684;9.918;2023-03-11T06:26:26;21.20;;;10.93;;
8113;SDS011;4099;52.684;9.918;2023-03-11T06:31:29;20.43;;;10.43;;
8113;SDS011;4099;52.684;9.918;2023-03-11T06:36:37;20.47;;;10.47;;
8113;SDS011;4099;52.684;9.918;2023-03-11T06:41:39;18.20;;;9.97;;
8113;SDS011;4099;52.684;9.918;2023-03-11T06:46:45;17.70;;;10.20;;
8113;SDS011;4099;52.684;9.918;2023-03-11T06:51:49;18.53;;;9.60;;
8113;SDS011;4099;52.684;9.918;2023-03-11T06:56:51;20.03;;;8.83;;
8113;SDS011;4099;52.684;9.918;2023-03-11T07:01:55;17.10;;;8.27;;
8113;SDS011;4099;52.684;9.918;2023-03-11T07:06:58;19.43;;;9.00;;
8113;SDS011;4099;52.684;9.918;2023-03-11T07:12:00;16.33;;;9.63;;
8113;SDS011;4099;52.684;9.918;2023-03-11T07:17:09;25.37;;;15.30;;
8113;SDS011;4099;52.684;9.918;2023-03-11T07:22:18;18.20;;;10.13;;
8113;SDS011;4099;52.684;9.918;2023-03-11T07:27:20;19.13;;;10.33;;
8113;SDS011;4099;52.684;9.918;2023-03-11T07:32:23;20.87;;;12.17;;
8113;SDS011;4099;52.684;9.918;2023-03-11T07:37:25;18.33;;;10.27;;
8113;SDS011;4099;52.684;9.918;2023-03-11T07:42:27;24.93;;;12.43;;
8113;SDS011;4099;52.684;9.918;2023-03-11T07:47:30;22.67;;;12.43;;
8113;SDS011;4099;52.684;9.918;2023-03-11T07:52:34;20.20;;;11.43;;
8113;SDS011;4099;52.684;9.918;2023-03-11T07:57:37;25.27;;;13.43;;
8113;SDS011;4099;52.684;9.918;2023-03-11T08:02:40;22.30;;;13.27;;
8113;SDS011;4099;52.684;9.918;2023-03-11T08:07:41;20.07;;;12.73;;
8113;SDS011;4099;52.684;9.918;2023-03-11T08:12:43;19.50;;;11.03;;
8113;SDS011;4099;52.684;9.918;2023-03-11T08:17:47;20.57;;;12.10;;
8113;SDS011;4099;52.684;9.918;2023-03-11T08:22:48;18.23;;;11.23;;
8113;SDS011;4099;52.684;9.918;2023-03-11T08:39:36;11.80;;;7.07;;
8113;SDS011;4099;52.684;9.918;2023-03-11T08:44:40;8.90;;;5.80;;
8113;SDS011;4099;52.684;9.918;2023-03-11T08:49:49;11.27;;;6.17;;
8113;SDS011;4099;52.684;9.918;2023-03-11T09:01:21;9.53;;;6.73;;
8113;SDS011;4099;52.684;9.918;2023-03-11T09:06:41;8.60;;;4.93;;
8113;SDS011;4099;52.684;9.918;2023-03-11T09:28:49;7.80;;;4.70;;
8113;SDS011;4099;52.684;9.918;2023-03-11T09:34:19;11.33;;;6.37;;
8113;SDS011;4099;52.684;9.918;2023-03-11T09:39:51;14.00;;;7.47;;
8113;SDS011;4099;52.684;9.918;2023-03-11T09:45:16;6.20;;;4.00;;
8113;SDS011;4099;52.684;9.918;2023-03-11T09:50:33;7.27;;;3.57;;
8113;SDS011;4099;52.684;9.918;2023-03-11T09:56:17;9.20;;;4.43;;
8113;SDS011;4099;52.684;9.918;2023-03-11T10:01:45;7.80;;;4.30;;
8113;SDS011;4099;52.684;9.918;2023-03-11T10:07:16;11.33;;;5.70;;
8113;SDS011;4099;52.684;9.918;2023-03-11T10:12:40;17.50;;;10.70;;
8113;SDS011;4099;52.684;9.918;2023-03-11T10:24:57;8.80;;;4.30;;
8113;SDS011;4099;52.684;9.918;2023-03-11T10:30:31;13.33;;;9.80;;
8113;SDS011;4099;52.684;9.918;2023-03-11T10:41:48;6.77;;;3.90;;
8113;SDS011;4099;52.684;9.918;2023-03-11T10:47:20;5.03;;;3.23;;
8113;SDS011;4099;52.684;9.918;2023-03-11T10:52:33;6.43;;;3.50;;
8113;SDS011;4099;52.684;9.918;2023-03-11T10:58:17;6.53;;;2.80;;
8113;SDS011;4099;52.684;9.918;2023-03-11T11:04:22;8.67;;;3.50;;
8113;SDS011;4099;52.684;9.918;2023-03-11T11:09:47;7.97;;;3.37;;
8113;SDS011;4099;52.684;9.918;2023-03-11T11:15:28;7.20;;;4.43;;
8113;SDS011;4099;52.684;9.918;2023-03-11T11:21:08;5.60;;;3.60;;
8113;SDS011;4099;52.684;9.918;2023-03-11T11:27:05;5.60;;;3.83;;
8113;SDS011;4099;52.684;9.918;2023-03-11T11:32:52;9.57;;;3.57;;
8113;SDS011;4099;52.684;9.918;2023-03-11T11:39:00;12.03;;;3.60;;
8113;SDS011;4099;52.684;9.918;2023-03-11T11:44:31;6.77;;;3.70;;
8113;SDS011;4099;52.684;9.918;2023-03-11T11:50:17;4.57;;;2.77;;
8113;SDS011;4099;52.684;9.918;2023-03-11T11:55:42;8.03;;;3.00;;
8113;SDS011;4099;52.684;9.918;2023-03-11T12:01:20;7.00;;;2.93;;
8113;SDS011;4099;52.684;9.918;2023-03-11T12:07:18;4.97;;;3.07;;
8113;SDS011;4099;52.684;9.918;2023-03-11T12:12:52;6.77;;;3.47;;
8113;SDS011;4099;52.684;9.918;2023-03-11T12:24:04;6.87;;;3.07;;
8113;SDS011;4099;52.684;9.918;2023-03-11T12:29:47;4.60;;;3.03;;
8113;SDS011;4099;52.684;9.918;2023-03-11T12:35:25;9.23;;;5.63;;
8113;SDS011;4099;52.684;9.918;2023-03-11T12:40:56;5.30;;;2.80;;
8113;SDS011;4099;52.684;9.918;2023-03-11T12:46:16;4.60;;;2.97;;
8113;SDS011;4099;52.684;9.918;2023-03-11T12:52:17;3.90;;;2.53;;
8113;SDS011;4099;52.684;9.918;2023-03-11T12:57:35;6.27;;;2.47;;
8113;SDS011;4099;52.684;9.918;2023-03-11T13:08:36;3.87;;;;;
8113;SDS011;4099;52.684;9.918;2023-03-11T13:14:25;4.67;;;1.97;;
8113;SDS011;4099;52.684;9.918;2023-03-11T13:19:37;6.80;;;1.97;;
8113;SDS011;4099;52.684;9.918;2023-03-11T13:25:29;7.20;;;2.87;;
8113;SDS011;4099;52.684;9.918;2023-03-11T13:30:48;4.27;;;2.73;;
8113;SDS011;4099;52.684;9.918;2023-03-11T13:42:23;2.20;;;1.90;;
8113;SDS011;4099;52.684;9.918;2023-03-11T13:47:48;3.40;;;2.07;;
8113;SDS011;4099;52.684;9.918;2023-03-11T13:53:05;4.57;;;1.90;;
8113;SDS011;4099;52.684;9.918;2023-03-11T13:58:27;3.47;;;2.20;;
8113;SDS011;4099;52.684;9.918;2023-03-11T14:03:47;4.13;;;1.67;;
8113;SDS011;4099;52.684;9.918;2023-03-11T14:08:56;5.37;;;1.80;;
8113;SDS011;4099;52.684;9.918;2023-03-11T14:14:38;4.63;;;2.23;;
8113;SDS011;4099;52.684;9.918;2023-03-11T14:25:37;9.77;;;5.00;;
8113;SDS011;4099;52.684;9.918;2023-03-11T14:36:27;4.83;;;2.23;;
8113;SDS011;4099;52.684;9.918;2023-03-11T14:41:32;4.33;;;3.50;;
8113;SDS011;4099;52.684;9.918;2023-03-11T14:46:49;3.40;;;2.27;;
8113;SDS011;4099;52.684;9.918;2023-03-11T14:52:15;3.40;;;1.40;;
8113;SDS011;4099;52.684;9.918;2023-03-11T14:57:33;5.30;;;2.10;;
8113;SDS011;4099;52.684;9.918;2023-03-11T15:03:10;4.20;;;1.40;;
8113;SDS011;4099;52.684;9.918;2023-03-11T15:08:43;2.17;;;1.40;;
8113;SDS011;4099;52.684;9.918;2023-03-11T15:13:54;2.03;;;1.60;;
8113;SDS011;4099;52.684;9.918;2023-03-11T15:24:57;9.20;;;4.37;;
8113;SDS011;4099;52.684;9.918;2023-03-11T15:30:15;5.20;;;2.50;;
8113;SDS011;4099;52.684;9.918;2023-03-11T15:35:29;5.23;;;2.63;;
8113;SDS011;4099;52.684;9.918;2023-03-11T15:40:53;3.90;;;2.40;;
8113;SDS011;4099;52.684;9.918;2023-03-11T15:46:24;4.23;;;2.10;;
8113;SDS011;4099;52.684;9.918;2023-03-11T15:51:30;4.20;;;2.80;;
8113;SDS011;4099;52.684;9.918;2023-03-11T15:56:44;4.07;;;2.00;;
8113;SDS011;4099;52.684;9.918;2023-03-11T16:01:50;4.37;;;2.43;;
8113;SDS011;4099;52.684;9.918;2023-03-11T16:07:04;2.97;;;2.20;;
8113;SDS011;4099;52.684;9.918;2023-03-11T16:12:12;6.67;;;3.00;;
8113;SDS011;4099;52.684;9.918;2023-03-11T16:17:18;5.40;;;2.93;;
8113;SDS011;4099;52.684;9.918;2023-03-11T16:22:27;3.73;;;2.10;;
8113;SDS011;4099;52.684;9.918;2023-03-11T16:27:40;3.50;;;2.30;;
8113;SDS011;4099;52.684;9.918;2023-03-11T16:32:58;3.30;;;2.03;;
8113;SDS011;4099;52.684;9.918;2023-03-11T16:38:14;3.70;;;2.30;;
8113;SDS011;4099;52.684;9.918;2023-03-11T16:43:23;3.17;;;2.67;;
8113;SDS011;4099;52.684;9.918;2023-03-11T16:48:35;5.00;;;2.20;;
8113;SDS011;4099;52.684;9.918;2023-03-11T16:53:42;6.87;;;2.70;;
8113;SDS011;4099;52.684;9.918;2023-03-11T16:58:57;5.57;;;2.93;;
8113;SDS011;4099;52.684;9.918;2023-03-11T17:04:09;6.97;;;2.80;;
8113;SDS011;4099;52.684;9.918;2023-03-11T17:09:20;8.03;;;3.57;;
8113;SDS011;4099;52.684;9.918;2023-03-11T17:14:26;5.37;;;3.87;;
8113;SDS011;4099;52.684;9.918;2023-03-11T17:19:42;9.93;;;5.00;;
8113;SDS011;4099;52.684;9.918;2023-03-11T17:24:53;5.70;;;5.10;;
8113;SDS011;4099;52.684;9.918;2023-03-11T17:29:56;7.40;;;3.23;;
8113;SDS011;4099;52.684;9.918;2023-03-11T17:35:00;7.20;;;3.27;;
8113;SDS011;4099;52.684;9.918;2023-03-11T17:40:06;7.10;;;5.53;;
8113;SDS011;4099;52.684;9.918;2023-03-11T17:45:10;6.93;;;3.80;;
8113;SDS011;4099;52.684;9.918;2023-03-11T17:50:13;4.87;;;3.43;;
8113;SDS011;4099;52.684;9.918;2023-03-11T17:55:20;8.33;;;3.20;;
8113;SDS011;4099;52.684;9.918;2023-03-11T18:00:24;7.40;;;3.43;;
8113;SDS011;4099;52.684;9.918;2023-03-11T18:05:27;9.70;;;3.40;;
8113;SDS011;4099;52.684;9.918;2023-03-11T18:10:38;8.20;;;5.17;;
8113;SDS011;4099;52.684;9.918;2023-03-11T18:15:41;8.33;;;4.77;;
8113;SDS011;4099;52.684;9.918;2023-03-11T18:20:45;8.63;;;7.73;;
8113;SDS011;4099;52.684;9.918;2023-03-11T18:25:52;8.37;;;4.27;;
8113;SDS011;4099;52.684;9.918;2023-03-11T18:31:03;10.77;;;3.27;;
8113;SDS011;4099;52.684;9.918;2023-03-11T18:36:11;5.37;;;2.60;;
8113;SDS011;4099;52.684;9.918;2023-03-11T18:41:23;8.17;;;2.73;;
8113;SDS011;4099;52.684;9.918;2023-03-11T18:46:30;5.27;;;2.70;;
8113;SDS011;4099;52.684;9.918;2023-03-11T18:51:36;8.57;;;5.00;;
8113;SDS011;4099;52.684;9.918;2023-03-11T18:56:40;5.60;;;3.00;;
8113;SDS011;4099;52.684;9.918;2023-03-11T19:01:43;5.53;;;2.97;;
8113;SDS011;4099;52.684;9.918;2023-03-11T19:06:49;14.90;;;7.23;;
8113;SDS011;4099;52.684;9.918;2023-03-11T19:11:54;16.17;;;8.03;;
8113;SDS011;4099;52.684;9.918;2023-03-11T19:16:57;14.57;;;6.13;;
8113;SDS011;4099;52.684;9.918;2023-03-11T19:22:03;6.73;;;3.40;;
8113;SDS011;4099;52.684;9.918;2023-03-11T19:27:08;5.63;;;3.03;;
8113;SDS011;4099;52.684;9.918;2023-03-11T19:32:11;6.90;;;3.50;;
8113;SDS011;4099;52.684;9.918;2023-03-11T19:37:17;9.13;;;3.67;;
8113;SDS011;4099;52.684;9.918;2023-03-11T19:42:23;4.57;;;4.00;;
8113;SDS011;4099;52.684;9.918;2023-03-11T19:47:25;5.57;;;3.57;;
8113;SDS011;4099;52.684;9.918;2023-03-11T19:52:29;13.63;;;6.53;;
8113;SDS011;4099;52.684;9.918;2023-03-11T19:57:35;6.97;;;3.43;;
8113;SDS011;4099;52.684;9.918;2023-03-11T20:02:38;7.43;;;4.60;;
8113;SDS011;4099;52.684;9.918;2023-03-11T20:07:48;9.13;;;5.17;;
8113;SDS011;4099;52.684;9.918;2023-03-11T20:12:52;12.10;;;6.30;;
8113;SDS011;4099;52.684;9.918;2023-03-11T20:17:56;9.20;;;3.90;;
8113;SDS011;4099;52.684;9.918;2023-03-11T20:23:03;9.13;;;3.90;;
8113;SDS011;4099;52.684;9.918;2023-03-11T20:28:10;6.43;;;3.93;;
8113;SDS011;4099;52.684;9.918;2023-03-11T20:33:15;10.00;;;4.20;;
8113;SDS011;4099;52.684;9.918;2023-03-11T20:38:22;8.57;;;4.80;;
8113;SDS011;4099;52.684;9.918;2023-03-11T20:43:30;8.53;;;4.60;;
8113;SDS011;4099;52.684;9.918;2023-03-11T20:48:37;9.63;;;3.90;;
8113;SDS011;4099;52.684;9.918;2023-03-11T20:53:40;8.60;;;4.57;;
8113;SDS011;4099;52.684;9.918;2023-03-11T20:58:47;7.60;;;4.43;;
8113;SDS011;4099;52.684;9.918;2023-03-11T21:03:51;6.77;;;4.17;;
8113;SDS011;4099;52.684;9.918;2023-03-11T21:08:58;5.80;;;3.83;;
8113;SDS011;4099;52.684;9.918;2023-03-11T21:14:03;5.07;;;3.80;;
8113;SDS011;4099;52.684;9.918;2023-03-11T21:19:10;8.83;;;4.53;;
8113;SDS011;4099;52.684;9.918;2023-03-11T21:24:14;8.47;;;5.20;;
8113;SDS011;4099;52.684;9.918;2023-03-11T21:29:18;9.77;;;5.93;;
8113;SDS011;4099;52.684;9.918;2023-03-11T21:34:23;10.40;;;6.37;;
8113;SDS011;4099;52.684;9.918;2023-03-11T21:39:26;14.40;;;7.37;;
8113;SDS011;4099;52.684;9.918;2023-03-11T21:44:31;12.17;;;6.87;;
8113;SDS011;4099;52.684;9.918;2023-03-11T21:49:39;10.40;;;7.30;;
8113;SDS011;4099;52.684;9.918;2023-03-11T21:54:42;10.80;;;6.30;;
8113;SDS011;4099;52.684;9.918;2023-03-11T21:59:49;8.63;;;6.13;;
8113;SDS011;4099;52.684;9.918;2023-03-11T22:04:56;9.60;;;5.87;;
8113;SDS011;4099;52.684;9.918;2023-03-11T22:09:59;5.50;;;3.73;;
8113;SDS011;4099;52.684;9.918;2023-03-11T22:15:07;12.87;;;3.13;;
8113;SDS011;4099;52.684;9.918;2023-03-11T22:20:11;3.87;;;3.20;;
8113;SDS011;4099;52.684;9.918;2023-03-11T22:25:14;7.77;;;3.43;;
8113;SDS011;4099;52.684;9.918;2023-03-11T22:30:20;6.90;;;3.93;;
8113;SDS011;4099;52.684;9.918;2023-03-11T22:35:24;5.93;;;3.50;;
8113;SDS011;4099;52.684;9.918;2023-03-11T22:40:27;6.37;;;3.80;;
8113;SDS011;4099;52.684;9.918;2023-03-11T22:45:32;6.50;;;3.63;;
8113;SDS011;4099;52.684;9.918;2023-03-11T22:50:41;8.00;;;3.73;;
8113;SDS011;4099;52.684;9.918;2023-03-11T22:55:54;7.73;;;3.20;;
8113;SDS011;4099;52.684;9.918;2023-03-11T23:01:04;5.80;;;3.50;;
8113;SDS011;4099;52.684;9.918;2023-03-11T23:06:07;6.00;;;4.00;;
8113;SDS011;4099;52.684;9.918;2023-03-11T23:11:14;6.83;;;3.90;;
8113;SDS011;4099;52.684;9.918;2023-03-11T23:16:22;10.93;;;4.73;;
8113;SDS011;4099;52.684;9.918;2023-03-11T23:21:26;13.07;;;6.77;;
8113;SDS011;4099;52.684;9.918;2023-03-11T23:26:32;11.43;;;5.70;;
8113;SDS011;4099;52.684;9.918;2023-03-11T23:31:39;8.33;;;4.57;;
8113;SDS011;4099;52.684;9.918;2023-03-11T23:36:45;9.10;;;4.77;;
8113;SDS011;4099;52.684;9.918;2023-03-11T23:41:53;9.83;;;5.30;;
8113;SDS011;4099;52.684;9.918;2023-03-11T23:47:00;10.60;;;4.67;;
8113;SDS011;4099;52.684;9.918;2023-03-11T23:52:08;7.37;;;4.27;;
8113;SDS011;4099;52.684;9.918;2023-03-11T23:57:11;5.87;;;4.03;;
